Rieti, Italia

11:46 AM CEST del 19 Settembre 2014 (GMT +0200)
Contigliano | Change Station
CLOSE
Current Station
Stazione meteo personale
Location: Contigliano,
Altitudine: 1686 ft
Stazioni meteo nelle vicinanze

Alt. 1686 ft 42.42 °N, 12.76 °E | Updated 5 minutes ago

Clear
Sereno
69.6 °F
Sembra 69.6 °F
N
0.0
Vento Variabile Vento da Sud
Gusts 0.0 mph

Oggi
Massima -- | Minima -- °F
--% Possibilità di precip.
Ieri
Massima -- | Minima -- °F
Precip. -- in
6:52 AM 7:11 PM
Luna calante, 20% visible
Pressione 30.06 in
Visibilità -9999.0 miglia
Nuvole
Punto di rugiada 64 °F
Umidità 83%
Piovosità 0.00 in
Spessore del manto nevoso Non disponibile.
Raggi UV Non disponibile.
Polline Non disponibile.
Qualità dell'aria Non disponibile.
Flu Activity Non disponibile.
METAR LIRG 190855Z 26003KT CAVOK 26/17 Q1018 RMK OVC SCT080 BKN200 MON NE LIB NC VIS MIN 9999 BLU

More Conditions Fewer Conditions

Pressione 30.06 in
Visibilità -9999.0 miglia
Nuvole
Punto di rugiada 64 °F
Umidità 83%
Piovosità 0.00 in
Spessore del manto nevoso Non disponibile.
Raggi UV Non disponibile.
Polline Non disponibile.
Qualità dell'aria Non disponibile.
Flu Activity Non disponibile.
METAR LIRG 190855Z 26003KT CAVOK 26/17 Q1018 RMK OVC SCT080 BKN200 MON NE LIB NC VIS MIN 9999 BLU

More Conditions Fewer Conditions

10-Day Weather Forecast

Almanac

Astronomia

Sep. 19, 2014 Alba Tramonto
Ora attuale 06:52 CEST 19:11 CEST
Crepuscolo civile 06:24 CEST 19:39 CEST
Crepuscolo nautico 05:51 CEST 20:12 CEST
Crepuscolo astronomico 05:17 CEST 20:46 CEST
Luna 02:18 CEST 16:33 CEST
Estensione della luce visibile 13h 15m
Lunghezza del giorno
12h 19m
Tomorrow will be 2m 50s shorter.
Luna calante, 20% of the Moon is Illuminated
Oggi
Luna calante
Set 24
Nuovo
Ott 1
Primo quarto
Ott 8
Luna piena
Ott 15
Ultimo quarto

Minime e massime di ieri

Massime Regione Minime Regione

Community

WunderPhotos

Upload Photos

1,754,583 foto caricate!

Nearby

Qualità dell'aria

Not available.

Profondità neve

Not available.

Attività sismica

Città  Distanza Mag. Data & Ora
Non sono state riportate attività sismiche nelle vicinanze.
Minimo Magnitudo Mostrato è 2.5.

Temperature delle acque costiere

Località Temperatura
Nessun dato dalle stazioni

Stazioni meteo nelle vicinanze